Time,TemperatureF,DewpointF,PressureIn,WindDirection,WindDirectionDegrees,WindSpeedMPH,WindSpeedGustMPH,Humidity,HourlyPrecipIn,Conditions,Clouds,dailyrainin,SoftwareType,DateUTC
2013-05-27 00:00:00,74.6,70.8,30.09,South,169,3.0,9.0,88,0.00,,,0.00,Wunderground v.1.15,2013-05-27 05:00:00,
2013-05-27 00:05:00,74.6,70.5,30.09,South,170,3.0,9.0,87,0.00,,,0.00,Wunderground v.1.15,2013-05-27 05:05:00,
2013-05-27 00:10:00,74.8,70.7,30.09,SSE,148,4.0,4.0,87,0.00,,,0.00,Wunderground v.1.15,2013-05-27 05:10:00,
2013-05-27 00:15:00,74.7,70.9,30.08,South,169,4.0,4.0,88,0.00,,,0.00,Wunderground v.1.15,2013-05-27 05:15:00,
2013-05-27 00:20:00,74.7,70.9,30.08,South,169,4.0,5.0,88,0.00,,,0.00,Wunderground v.1.15,2013-05-27 05:20:00,
2013-05-27 00:25:00,74.7,70.9,30.08,SSE,148,4.0,5.0,88,0.00,,,0.00,Wunderground v.1.15,2013-05-27 05:25:00,
2013-05-27 00:30:00,74.6,70.8,30.08,SSE,158,3.0,3.0,88,0.00,,,0.00,Wunderground v.1.15,2013-05-27 05:30:00,
2013-05-27 00:35:00,74.6,70.8,30.08,SSE,159,3.0,3.0,88,0.00,,,0.00,Wunderground v.1.15,2013-05-27 05:35:00,
2013-05-27 00:40:00,74.5,70.7,30.08,SSE,164,3.0,4.0,88,0.00,,,0.00,Wunderground v.1.15,2013-05-27 05:40:00,
2013-05-27 00:50:00,74.2,70.4,30.08,SSE,163,3.0,4.0,88,0.00,,,0.00,Wunderground v.1.15,2013-05-27 05:50:00,
2013-05-27 00:55:00,74.1,70.6,30.08,SE,143,3.0,4.0,89,0.00,,,0.00,Wunderground v.1.15,2013-05-27 05:55:00,
2013-05-27 01:00:00,74.0,70.9,30.08,SSE,158,3.0,3.0,90,0.00,,,0.00,Wunderground v.1.15,2013-05-27 06:00:00,
2013-05-27 01:05:00,73.9,70.8,30.08,SSE,148,2.0,6.0,90,0.00,,,0.00,Wunderground v.1.15,2013-05-27 06:05:00,
2013-05-27 01:10:00,73.9,70.8,30.08,East,96,2.0,2.0,90,0.00,,,0.00,Wunderground v.1.15,2013-05-27 06:10:00,
2013-05-27 01:20:00,73.6,70.5,30.08,SSE,154,2.0,6.0,90,0.00,,,0.00,Wunderground v.1.15,2013-05-27 06:20:00,
2013-05-27 01:25:00,73.6,70.8,30.08,SE,142,2.0,6.0,91,0.00,,,0.00,Wunderground v.1.15,2013-05-27 06:25:00,
2013-05-27 01:30:00,73.5,70.7,30.08,SE,125,2.0,2.0,91,0.00,,,0.00,Wunderground v.1.15,2013-05-27 06:30:00,
2013-05-27 01:35:00,73.1,70.3,30.08,ESE,112,1.0,6.0,91,0.00,,,0.00,Wunderground v.1.15,2013-05-27 06:35:00,
2013-05-27 01:40:00,72.8,70.3,30.08,ESE,118,1.0,6.0,92,0.00,,,0.00,Wunderground v.1.15,2013-05-27 06:40:00,
2013-05-27 01:45:00,72.7,70.2,30.08,SE,139,1.0,6.0,92,0.00,,,0.00,Wunderground v.1.15,2013-05-27 06:45:00,
2013-05-27 01:55:00,72.4,69.9,30.08,ESE,110,0.0,6.0,92,0.00,,,0.00,Wunderground v.1.15,2013-05-27 06:55:00,
2013-05-27 02:00:00,72.3,70.2,30.08,ESE,110,1.0,6.0,93,0.00,,,0.00,Wunderground v.1.15,2013-05-27 07:00:00,
2013-05-27 02:05:00,72.2,70.1,30.07,SE,133,1.0,6.0,93,0.00,,,0.00,Wunderground v.1.15,2013-05-27 07:05:00,
2013-05-27 02:10:00,72.2,70.1,30.07,SSE,153,1.0,6.0,93,0.00,,,0.00,Wunderground v.1.15,2013-05-27 07:10:00,
2013-05-27 02:15:00,72.1,70.3,30.07,SE,145,1.0,6.0,94,0.00,,,0.00,Wunderground v.1.15,2013-05-27 07:15:00,
2013-05-27 02:20:00,71.8,70.0,30.07,SE,145,0.0,6.0,94,0.00,,,0.00,Wunderground v.1.15,2013-05-27 07:20:00,
2013-05-27 02:25:00,71.7,69.9,30.07,SE,145,0.0,6.0,94,0.00,,,0.00,Wunderground v.1.15,2013-05-27 07:25:00,
2013-05-27 02:30:00,71.7,70.2,30.06,SE,141,1.0,6.0,95,0.00,,,0.00,Wunderground v.1.15,2013-05-27 07:30:00,
2013-05-27 02:35:00,71.6,69.8,30.06,ESE,120,1.0,6.0,94,0.00,,,0.00,Wunderground v.1.15,2013-05-27 07:35:00,
2013-05-27 02:40:00,71.4,69.9,30.07,SE,126,1.0,1.0,95,0.00,,,0.00,Wunderground v.1.15,2013-05-27 07:40:00,
2013-05-27 02:50:00,71.2,69.7,30.06,ESE,109,1.0,6.0,95,0.00,,,0.00,Wunderground v.1.15,2013-05-27 07:50:00,
2013-05-27 02:55:00,71.1,69.6,30.06,ESE,115,1.0,6.0,95,0.00,,,0.00,Wunderground v.1.15,2013-05-27 07:55:00,
2013-05-27 03:00:00,71.1,69.6,30.06,ESE,115,1.0,1.0,95,0.00,,,0.00,Wunderground v.1.15,2013-05-27 08:00:00,
2013-05-27 03:05:00,71.0,69.5,30.06,ESE,115,0.0,6.0,95,0.00,,,0.00,Wunderground v.1.15,2013-05-27 08:05:00,
2013-05-27 03:10:00,71.0,69.8,30.06,ESE,115,0.0,6.0,96,0.00,,,0.00,Wunderground v.1.15,2013-05-27 08:10:00,
2013-05-27 03:15:00,71.1,69.9,30.06,SE,127,0.0,6.0,96,0.00,,,0.00,Wunderground v.1.15,2013-05-27 08:15:00,
2013-05-27 03:20:00,71.0,69.8,30.06,SE,126,1.0,6.0,96,0.00,,,0.00,Wunderground v.1.15,2013-05-27 08:20:00,
2013-05-27 03:30:00,70.9,69.7,30.06,ESE,105,1.0,6.0,96,0.00,,,0.00,Wunderground v.1.15,2013-05-27 08:30:00,
2013-05-27 03:35:00,70.8,69.6,30.06,ESE,102,1.0,6.0,96,0.00,,,0.00,Wunderground v.1.15,2013-05-27 08:35:00,
2013-05-27 03:40:00,70.8,69.6,30.06,ESE,106,1.0,1.0,96,0.00,,,0.00,Wunderground v.1.15,2013-05-27 08:40:00,
2013-05-27 03:45:00,70.7,69.5,30.06,ESE,106,1.0,6.0,96,0.00,,,0.00,Wunderground v.1.15,2013-05-27 08:45:00,
2013-05-27 03:50:00,70.8,69.6,30.06,SE,130,0.0,6.0,96,0.00,,,0.00,Wunderground v.1.15,2013-05-27 08:50:00,
2013-05-27 04:00:00,70.7,69.5,30.06,ESE,110,0.0,6.0,96,0.00,,,0.00,Wunderground v.1.15,2013-05-27 09:00:00,
2013-05-27 04:05:00,70.6,69.4,30.06,ESE,106,1.0,6.0,96,0.00,,,0.00,Wunderground v.1.15,2013-05-27 09:05:00,
2013-05-27 04:10:00,70.5,69.3,30.06,ESE,108,1.0,6.0,96,0.00,,,0.00,Wunderground v.1.15,2013-05-27 09:10:00,
2013-05-27 04:15:00,70.5,69.3,30.06,East,98,1.0,6.0,96,0.00,,,0.00,Wunderground v.1.15,2013-05-27 09:15:00,
2013-05-27 04:20:00,70.4,69.2,30.06,East,91,1.0,6.0,96,0.00,,,0.00,Wunderground v.1.15,2013-05-27 09:20:00,
2013-05-27 04:25:00,70.4,69.2,30.06,ESE,109,1.0,6.0,96,0.00,,,0.00,Wunderground v.1.15,2013-05-27 09:25:00,
2013-05-27 04:35:00,70.3,69.4,30.06,ESE,121,1.0,6.0,97,0.00,,,0.00,Wunderground v.1.15,2013-05-27 09:35:00,
2013-05-27 04:40:00,70.2,69.3,30.06,ESE,108,1.0,6.0,97,0.00,,,0.00,Wunderground v.1.15,2013-05-27 09:40:00,
2013-05-27 04:45:00,70.2,69.3,30.06,ESE,120,1.0,6.0,97,0.00,,,0.00,Wunderground v.1.15,2013-05-27 09:45:00,
2013-05-27 04:50:00,70.1,69.2,30.06,ESE,120,1.0,6.0,97,0.00,,,0.00,Wunderground v.1.15,2013-05-27 09:50:00,
2013-05-27 04:55:00,70.0,69.1,30.06,ESE,117,1.0,6.0,97,0.00,,,0.00,Wunderground v.1.15,2013-05-27 09:55:00,
2013-05-27 05:05:00,69.9,69.0,30.06,ESE,116,1.0,6.0,97,0.00,,,0.00,Wunderground v.1.15,2013-05-27 10:05:00,
2013-05-27 05:10:00,69.9,69.0,30.06,ESE,122,1.0,1.0,97,0.00,,,0.00,Wunderground v.1.15,2013-05-27 10:10:00,
2013-05-27 05:15:00,69.9,69.0,30.06,ESE,122,1.0,6.0,97,0.00,,,0.00,Wunderground v.1.15,2013-05-27 10:15:00,
2013-05-27 05:20:00,69.9,69.0,30.06,ESE,122,0.0,6.0,97,0.00,,,0.00,Wunderground v.1.15,2013-05-27 10:20:00,
2013-05-27 05:25:00,69.8,68.9,30.06,ESE,122,0.0,6.0,97,0.00,,,0.00,Wunderground v.1.15,2013-05-27 10:25:00,
2013-05-27 05:30:00,69.8,68.9,30.06,ESE,122,0.0,6.0,97,0.00,,,0.00,Wunderground v.1.15,2013-05-27 10:30:00,
2013-05-27 05:40:00,69.8,69.2,30.06,ESE,122,0.0,6.0,98,0.00,,,0.00,Wunderground v.1.15,2013-05-27 10:40:00,
2013-05-27 05:45:00,69.8,69.2,30.06,ESE,108,0.0,6.0,98,0.00,,,0.00,Wunderground v.1.15,2013-05-27 10:45:00,
2013-05-27 05:50:00,69.9,69.3,30.06,ESE,117,1.0,1.0,98,0.00,,,0.00,Wunderground v.1.15,2013-05-27 10:50:00,
2013-05-27 05:55:00,69.8,69.2,30.06,ESE,117,1.0,6.0,98,0.00,,,0.00,Wunderground v.1.15,2013-05-27 10:55:00,
2013-05-27 06:00:00,69.7,69.1,30.06,ESE,117,1.0,1.0,98,0.00,,,0.00,Wunderground v.1.15,2013-05-27 11:00:00,
2013-05-27 06:05:00,69.6,69.0,30.06,ESE,117,0.0,6.0,98,0.00,,,0.00,Wunderground v.1.15,2013-05-27 11:05:00,
2013-05-27 06:10:00,69.6,69.0,30.07,ESE,117,0.0,6.0,98,0.00,,,0.00,Wunderground v.1.15,2013-05-27 11:10:00,
2013-05-27 06:15:00,69.7,69.1,30.07,ESE,117,0.0,6.0,98,0.00,,,0.00,Wunderground v.1.15,2013-05-27 11:15:00,
2013-05-27 06:20:00,69.7,69.1,30.07,ESE,117,0.0,6.0,98,0.00,,,0.00,Wunderground v.1.15,2013-05-27 11:20:00,
2013-05-27 06:25:00,69.7,69.1,30.07,ESE,117,1.0,6.0,98,0.00,,,0.00,Wunderground v.1.15,2013-05-27 11:25:00,
2013-05-27 06:30:00,69.8,69.2,30.07,ESE,117,1.0,1.0,98,0.00,,,0.00,Wunderground v.1.15,2013-05-27 11:30:00,
2013-05-27 06:40:00,70.2,69.6,30.08,ESE,115,1.0,1.0,98,0.00,,,0.00,Wunderground v.1.15,2013-05-27 11:40:00,
2013-05-27 06:45:00,70.4,69.8,30.08,ESE,115,1.0,6.0,98,0.00,,,0.00,Wunderground v.1.15,2013-05-27 11:45:00,
2013-05-27 06:50:00,70.6,70.0,30.08,ESE,107,1.0,6.0,98,0.00,,,0.00,Wunderground v.1.15,2013-05-27 11:50:00,
2013-05-27 06:55:00,70.8,70.2,30.09,East,96,1.0,6.0,98,0.00,,,0.00,Wunderground v.1.15,2013-05-27 11:55:00,
2013-05-27 07:00:00,70.9,70.0,30.09,ESE,115,1.0,6.0,97,0.00,,,0.00,Wunderground v.1.15,2013-05-27 12:00:00,
2013-05-27 07:05:00,71.0,70.1,30.09,ESE,117,2.0,6.0,97,0.00,,,0.00,Wunderground v.1.15,2013-05-27 12:05:00,
2013-05-27 07:15:00,71.5,70.6,30.09,SE,144,2.0,6.0,97,0.00,,,0.00,Wunderground v.1.15,2013-05-27 12:15:00,
2013-05-27 07:20:00,71.8,70.9,30.09,ESE,110,2.0,6.0,97,0.00,,,0.00,Wunderground v.1.15,2013-05-27 12:20:00,
2013-05-27 07:25:00,72.1,70.9,30.09,East,90,2.0,6.0,96,0.00,,,0.00,Wunderground v.1.15,2013-05-27 12:25:00,
2013-05-27 07:30:00,72.4,71.2,30.09,SE,143,2.0,6.0,96,0.00,,,0.00,Wunderground v.1.15,2013-05-27 12:30:00,
2013-05-27 07:35:00,73.0,71.8,30.09,SE,135,2.0,6.0,96,0.00,,,0.00,Wunderground v.1.15,2013-05-27 12:35:00,
2013-05-27 07:45:00,74.3,72.5,30.09,SE,135,2.0,6.0,94,0.00,,,0.00,Wunderground v.1.15,2013-05-27 12:45:00,
2013-05-27 07:50:00,74.8,72.6,30.09,ESE,115,2.0,6.0,93,0.00,,,0.00,Wunderground v.1.15,2013-05-27 12:50:00,
2013-05-27 07:55:00,75.2,72.4,30.09,SE,130,3.0,6.0,91,0.00,,,0.00,Wunderground v.1.15,2013-05-27 12:55:00,
2013-05-27 08:00:00,75.7,72.9,30.09,ESE,108,3.0,6.0,91,0.00,,,0.00,Wunderground v.1.15,2013-05-27 13:00:00,
2013-05-27 08:05:00,76.0,72.9,30.09,SE,124,4.0,6.0,90,0.00,,,0.00,Wunderground v.1.15,2013-05-27 13:05:00,
2013-05-27 08:10:00,76.3,73.1,30.09,SE,127,4.0,6.0,90,0.00,,,0.00,Wunderground v.1.15,2013-05-27 13:10:00,
2013-05-27 08:20:00,77.0,73.2,30.09,SSE,168,4.0,6.0,88,0.00,,,0.00,Wunderground v.1.15,2013-05-27 13:20:00,
2013-05-27 08:25:00,77.2,73.0,30.09,SE,146,4.0,6.0,87,0.00,,,0.00,Wunderground v.1.15,2013-05-27 13:25:00,
2013-05-27 08:30:00,77.4,73.2,30.09,SE,144,5.0,5.0,87,0.00,,,0.00,Wunderground v.1.15,2013-05-27 13:30:00,
2013-05-27 08:35:00,77.5,73.3,30.09,SE,136,5.0,6.0,87,0.00,,,0.00,Wunderground v.1.15,2013-05-27 13:35:00,
2013-05-27 08:40:00,77.5,73.0,30.10,South,188,5.0,6.0,86,0.00,,,0.00,Wunderground v.1.15,2013-05-27 13:40:00,
2013-05-27 08:50:00,78.0,73.5,30.10,SSE,161,6.0,9.0,86,0.00,,,0.00,Wunderground v.1.15,2013-05-27 13:50:00,
2013-05-27 08:55:00,78.4,73.9,30.10,South,170,6.0,9.0,86,0.00,,,0.00,Wunderground v.1.15,2013-05-27 13:55:00,
2013-05-27 09:00:00,78.6,73.4,30.10,SSE,148,5.0,5.0,84,0.00,,,0.00,Wunderground v.1.15,2013-05-27 14:00:00,
2013-05-27 09:05:00,78.7,73.5,30.10,SSE,150,5.0,6.0,84,0.00,,,0.00,Wunderground v.1.15,2013-05-27 14:05:00,
2013-05-27 09:10:00,78.9,74.0,30.10,SSW,193,5.0,5.0,85,0.00,,,0.00,Wunderground v.1.15,2013-05-27 14:10:00,
2013-05-27 09:15:00,78.9,73.7,30.10,SSE,160,5.0,6.0,84,0.00,,,0.00,Wunderground v.1.15,2013-05-27 14:15:00,
2013-05-27 09:20:00,79.0,73.7,30.10,SSE,148,5.0,7.0,84,0.00,,,0.00,Wunderground v.1.15,2013-05-27 14:20:00,
2013-05-27 09:25:00,79.0,73.7,30.10,South,177,6.0,7.0,84,0.00,,,0.00,Wunderground v.1.15,2013-05-27 14:25:00,
2013-05-27 09:30:00,79.6,74.3,30.10,SE,144,6.0,6.0,84,0.00,,,0.00,Wunderground v.1.15,2013-05-27 14:30:00,
2013-05-27 09:35:00,79.8,73.8,30.10,SSE,166,5.0,6.0,82,0.00,,,0.00,Wunderground v.1.15,2013-05-27 14:35:00,
2013-05-27 09:45:00,80.3,73.9,30.10,SSE,155,5.0,6.0,81,0.00,,,0.00,Wunderground v.1.15,2013-05-27 14:45:00,
2013-05-27 09:50:00,79.9,73.9,30.10,SE,143,6.0,6.0,82,0.00,,,0.00,Wunderground v.1.15,2013-05-27 14:50:00,
2013-05-27 09:55:00,80.2,73.8,30.10,South,169,6.0,6.0,81,0.00,,,0.00,Wunderground v.1.15,2013-05-27 14:55:00,
2013-05-27 10:00:00,80.6,73.9,30.10,SE,139,6.0,6.0,80,0.00,,,0.00,Wunderground v.1.15,2013-05-27 15:00:00,
2013-05-27 10:05:00,80.7,74.0,30.10,SE,142,5.0,6.0,80,0.00,,,0.00,Wunderground v.1.15,2013-05-27 15:05:00,
2013-05-27 10:10:00,81.3,74.5,30.09,SSE,163,5.0,7.0,80,0.00,,,0.00,Wunderground v.1.15,2013-05-27 15:10:00,
2013-05-27 10:15:00,81.5,74.0,30.09,SSE,164,6.0,8.0,78,0.00,,,0.00,Wunderground v.1.15,2013-05-27 15:15:00,
2013-05-27 10:25:00,82.4,73.7,30.09,SSE,153,6.0,6.0,75,0.00,,,0.00,Wunderground v.1.15,2013-05-27 15:25:00,
2013-05-27 10:30:00,82.7,74.4,30.09,SE,143,5.0,6.0,76,0.00,,,0.00,Wunderground v.1.15,2013-05-27 15:30:00,
2013-05-27 10:35:00,82.9,73.8,30.09,SE,126,6.0,6.0,74,0.00,,,0.00,Wunderground v.1.15,2013-05-27 15:35:00,
2013-05-27 10:40:00,82.8,73.7,30.09,SSE,165,6.0,8.0,74,0.00,,,0.00,Wunderground v.1.15,2013-05-27 15:40:00,
2013-05-27 10:45:00,82.6,74.7,30.09,SE,136,6.0,8.0,77,0.00,,,0.00,Wunderground v.1.15,2013-05-27 15:45:00,
2013-05-27 10:50:00,83.6,74.0,30.09,SSE,165,5.0,6.0,73,0.00,,,0.00,Wunderground v.1.15,2013-05-27 15:50:00,
2013-05-27 11:00:00,83.8,73.4,30.09,East,84,7.0,7.0,71,0.00,,,0.00,Wunderground v.1.15,2013-05-27 16:00:00,
2013-05-27 11:05:00,83.6,72.8,30.09,SSE,149,6.0,7.0,70,0.00,,,0.00,Wunderground v.1.15,2013-05-27 16:05:00,
2013-05-27 11:10:00,83.4,73.8,30.08,SSE,159,6.0,6.0,73,0.00,,,0.00,Wunderground v.1.15,2013-05-27 16:10:00,
2013-05-27 11:15:00,83.0,73.0,30.09,SSE,158,5.0,8.0,72,0.00,,,0.00,Wunderground v.1.15,2013-05-27 16:15:00,
2013-05-27 11:20:00,82.5,73.4,30.08,SSE,161,6.0,6.0,74,0.00,,,0.00,Wunderground v.1.15,2013-05-27 16:20:00,
2013-05-27 11:30:00,82.4,73.3,30.09,SSW,196,4.0,6.0,74,0.00,,,0.00,Wunderground v.1.15,2013-05-27 16:30:00,
2013-05-27 11:35:00,82.6,72.7,30.09,SSE,165,5.0,6.0,72,0.00,,,0.00,Wunderground v.1.15,2013-05-27 16:35:00,
2013-05-27 11:40:00,84.2,72.9,30.09,SSE,164,5.0,8.0,69,0.00,,,0.00,Wunderground v.1.15,2013-05-27 16:40:00,
2013-05-27 11:45:00,85.0,72.8,30.08,SE,143,5.0,8.0,67,0.00,,,0.00,Wunderground v.1.15,2013-05-27 16:45:00,
2013-05-27 11:50:00,85.6,74.3,30.08,SE,135,5.0,5.0,69,0.00,,,0.00,Wunderground v.1.15,2013-05-27 16:50:00,
2013-05-27 11:55:00,85.6,72.9,30.08,South,180,5.0,6.0,66,0.00,,,0.00,Wunderground v.1.15,2013-05-27 16:55:00,
2013-05-27 12:05:00,85.8,73.1,30.08,SE,141,7.0,7.0,66,0.00,,,0.00,Wunderground v.1.15,2013-05-27 17:05:00,
2013-05-27 12:10:00,86.3,72.7,30.08,SSE,166,7.0,7.0,64,0.00,,,0.00,Wunderground v.1.15,2013-05-27 17:10:00,
2013-05-27 12:15:00,86.7,73.5,30.08,SW,231,6.0,7.0,65,0.00,,,0.00,Wunderground v.1.15,2013-05-27 17:15:00,
2013-05-27 12:20:00,87.5,73.3,30.08,South,188,5.0,8.0,63,0.00,,,0.00,Wunderground v.1.15,2013-05-27 17:20:00,
2013-05-27 12:25:00,86.5,71.9,30.08,South,176,6.0,9.0,62,0.00,,,0.00,Wunderground v.1.15,2013-05-27 17:25:00,
2013-05-27 12:35:00,87.3,72.2,30.07,SE,146,6.0,7.0,61,0.00,,,0.00,Wunderground v.1.15,2013-05-27 17:35:00,
2013-05-27 12:40:00,87.6,71.0,30.07,SE,143,7.0,8.0,58,0.00,,,0.00,Wunderground v.1.15,2013-05-27 17:40:00,
2013-05-27 12:45:00,88.0,71.4,30.07,South,169,6.0,8.0,58,0.00,,,0.00,Wunderground v.1.15,2013-05-27 17:45:00,
2013-05-27 12:50:00,88.7,71.5,30.07,SSW,203,5.0,9.0,57,0.00,,,0.00,Wunderground v.1.15,2013-05-27 17:50:00,
2013-05-27 12:55:00,88.6,70.9,30.07,SSW,203,6.0,9.0,56,0.00,,,0.00,Wunderground v.1.15,2013-05-27 17:55:00,
2013-05-27 13:00:00,87.9,71.3,30.06,South,169,8.0,8.0,58,0.00,,,0.00,Wunderground v.1.15,2013-05-27 18:00:00,
2013-05-27 13:10:00,86.9,69.3,30.07,SSW,209,8.0,8.0,56,0.00,,,0.00,Wunderground v.1.15,2013-05-27 18:10:00,
2013-05-27 13:15:00,88.1,69.4,30.07,South,171,6.0,8.0,54,0.00,,,0.00,Wunderground v.1.15,2013-05-27 18:15:00,
2013-05-27 13:20:00,88.7,68.2,30.06,SSE,165,6.0,15.0,51,0.00,,,0.00,Wunderground v.1.15,2013-05-27 18:20:00,
2013-05-27 13:25:00,88.2,68.4,30.06,SSW,192,7.0,15.0,52,0.00,,,0.00,Wunderground v.1.15,2013-05-27 18:25:00,
2013-05-27 13:30:00,88.1,67.1,30.06,South,173,8.0,8.0,50,0.00,,,0.00,Wunderground v.1.15,2013-05-27 18:30:00,
2013-05-27 13:35:00,88.2,66.6,30.06,South,180,8.0,8.0,49,0.00,,,0.00,Wunderground v.1.15,2013-05-27 18:35:00,
2013-05-27 13:40:00,88.4,67.4,30.06,SSE,164,7.0,7.0,50,0.00,,,0.00,Wunderground v.1.15,2013-05-27 18:40:00,
2013-05-27 13:45:00,88.6,69.8,30.06,SSW,213,6.0,7.0,54,0.00,,,0.00,Wunderground v.1.15,2013-05-27 18:45:00,
2013-05-27 13:50:00,88.7,65.9,30.06,SW,226,6.0,8.0,47,0.00,,,0.00,Wunderground v.1.15,2013-05-27 18:50:00,
2013-05-27 13:55:00,88.7,67.1,30.06,South,169,6.0,8.0,49,0.00,,,0.00,Wunderground v.1.15,2013-05-27 18:55:00,
2013-05-27 14:00:00,89.0,66.2,30.05,South,177,6.0,6.0,47,0.00,,,0.00,Wunderground v.1.15,2013-05-27 19:00:00,
2013-05-27 14:10:00,88.6,67.6,30.05,SSE,158,8.0,9.0,50,0.00,,,0.00,Wunderground v.1.15,2013-05-27 19:10:00,
2013-05-27 14:15:00,88.6,67.0,30.04,South,188,7.0,9.0,49,0.00,,,0.00,Wunderground v.1.15,2013-05-27 19:15:00,
2013-05-27 14:20:00,88.5,66.9,30.04,South,188,8.0,8.0,49,0.00,,,0.00,Wunderground v.1.15,2013-05-27 19:20:00,
2013-05-27 14:25:00,88.6,68.2,30.04,South,177,7.0,8.0,51,0.00,,,0.00,Wunderground v.1.15,2013-05-27 19:25:00,
2013-05-27 14:30:00,88.9,69.6,30.04,SSW,197,6.0,6.0,53,0.00,,,0.00,Wunderground v.1.15,2013-05-27 19:30:00,
2013-05-27 14:35:00,89.5,69.0,30.03,South,172,6.0,6.0,51,0.00,,,0.00,Wunderground v.1.15,2013-05-27 19:35:00,
2013-05-27 14:45:00,89.2,69.8,30.03,SSW,207,6.0,8.0,53,0.00,,,0.00,Wunderground v.1.15,2013-05-27 19:45:00,
2013-05-27 14:50:00,88.8,69.5,30.03,SSE,158,6.0,9.0,53,0.00,,,0.00,Wunderground v.1.15,2013-05-27 19:50:00,
2013-05-27 14:55:00,87.4,70.3,30.03,South,186,7.0,9.0,57,0.00,,,0.00,Wunderground v.1.15,2013-05-27 19:55:00,
2013-05-27 15:00:00,87.8,71.7,30.02,SSE,157,7.0,9.0,59,0.00,,,0.00,Wunderground v.1.15,2013-05-27 20:00:00,
2013-05-27 15:05:00,88.2,70.5,30.02,SSE,157,6.0,9.0,56,0.00,,,0.00,Wunderground v.1.15,2013-05-27 20:05:00,
2013-05-27 15:15:00,89.1,69.2,30.02,South,177,7.0,9.0,52,0.00,,,0.00,Wunderground v.1.15,2013-05-27 20:15:00,
2013-05-27 15:20:00,88.7,68.2,30.02,SW,221,8.0,8.0,51,0.00,,,0.00,Wunderground v.1.15,2013-05-27 20:20:00,
2013-05-27 15:25:00,88.5,68.1,30.02,SW,224,7.0,17.0,51,0.00,,,0.00,Wunderground v.1.15,2013-05-27 20:25:00,
2013-05-27 15:30:00,88.5,68.6,30.02,SSE,168,7.0,10.0,52,0.00,,,0.00,Wunderground v.1.15,2013-05-27 20:30:00,
2013-05-27 15:35:00,88.2,67.2,30.02,South,172,8.0,10.0,50,0.00,,,0.00,Wunderground v.1.15,2013-05-27 20:35:00,
2013-05-27 15:40:00,88.2,66.6,30.02,SE,136,8.0,9.0,49,0.00,,,0.00,Wunderground v.1.15,2013-05-27 20:40:00,
2013-05-27 15:50:00,87.8,66.3,30.01,SSE,148,9.0,13.0,49,0.00,,,0.00,Wunderground v.1.15,2013-05-27 20:50:00,
2013-05-27 15:55:00,87.9,66.4,30.02,SSE,158,8.0,13.0,49,0.00,,,0.00,Wunderground v.1.15,2013-05-27 20:55:00,
2013-05-27 16:00:00,87.8,65.7,30.02,South,172,8.0,8.0,48,0.00,,,0.00,Wunderground v.1.15,2013-05-27 21:00:00,
2013-05-27 16:05:00,88.1,66.5,30.01,SSE,158,7.0,8.0,49,0.00,,,0.00,Wunderground v.1.15,2013-05-27 21:05:00,
2013-05-27 16:10:00,87.8,65.1,30.02,South,185,8.0,9.0,47,0.00,,,0.00,Wunderground v.1.15,2013-05-27 21:10:00,
2013-05-27 16:20:00,87.8,65.7,30.01,SW,224,8.0,9.0,48,0.00,,,0.00,Wunderground v.1.15,2013-05-27 21:20:00,
2013-05-27 16:25:00,87.7,65.0,30.01,WSW,245,6.0,9.0,47,0.00,,,0.00,Wunderground v.1.15,2013-05-27 21:25:00,
2013-05-27 16:30:00,87.8,66.3,30.01,SW,222,7.0,8.0,49,0.00,,,0.00,Wunderground v.1.15,2013-05-27 21:30:00,
2013-05-27 16:35:00,87.9,65.8,30.01,South,169,6.0,8.0,48,0.00,,,0.00,Wunderground v.1.15,2013-05-27 21:35:00,
2013-05-27 16:40:00,88.0,65.8,30.01,South,173,6.0,6.0,48,0.00,,,0.00,Wunderground v.1.15,2013-05-27 21:40:00,
2013-05-27 16:45:00,87.9,65.2,30.01,SE,146,6.0,6.0,47,0.00,,,0.00,Wunderground v.1.15,2013-05-27 21:45:00,
2013-05-27 16:50:00,87.8,65.1,30.01,SW,214,7.0,7.0,47,0.00,,,0.00,Wunderground v.1.15,2013-05-27 21:50:00,
2013-05-27 16:55:00,87.5,62.9,30.01,SE,146,8.0,10.0,44,0.00,,,0.00,Wunderground v.1.15,2013-05-27 21:55:00,
2013-05-27 17:00:00,87.5,64.8,30.01,SSW,210,8.0,10.0,47,0.00,,,0.00,Wunderground v.1.15,2013-05-27 22:00:00,
2013-05-27 17:05:00,87.3,64.6,30.01,SW,228,8.0,10.0,47,0.00,,,0.00,Wunderground v.1.15,2013-05-27 22:05:00,
2013-05-27 17:10:00,87.7,64.4,30.01,SSE,167,6.0,6.0,46,0.00,,,0.00,Wunderground v.1.15,2013-05-27 22:10:00,
2013-05-27 17:15:00,87.7,65.0,30.01,SSE,153,6.0,6.0,47,0.00,,,0.00,Wunderground v.1.15,2013-05-27 22:15:00,
2013-05-27 17:25:00,87.5,66.0,30.00,South,187,6.0,7.0,49,0.00,,,0.00,Wunderground v.1.15,2013-05-27 22:25:00,
2013-05-27 17:30:00,87.9,65.8,30.00,SW,230,4.0,6.0,48,0.00,,,0.00,Wunderground v.1.15,2013-05-27 22:30:00,
2013-05-27 17:35:00,87.9,65.8,30.00,SSW,193,4.0,7.0,48,0.00,,,0.00,Wunderground v.1.15,2013-05-27 22:35:00,
2013-05-27 17:40:00,87.3,65.2,30.00,SSE,160,7.0,7.0,48,0.00,,,0.00,Wunderground v.1.15,2013-05-27 22:40:00,
2013-05-27 17:45:00,87.1,65.6,30.00,South,179,7.0,7.0,49,0.00,,,0.00,Wunderground v.1.15,2013-05-27 22:45:00,
2013-05-27 17:55:00,86.7,67.0,29.99,South,174,6.0,8.0,52,0.00,,,0.00,Wunderground v.1.15,2013-05-27 22:55:00,
2013-05-27 18:00:00,86.6,66.9,29.99,SSE,155,6.0,6.0,52,0.00,,,0.00,Wunderground v.1.15,2013-05-27 23:00:00,
2013-05-27 18:05:00,86.5,67.3,29.99,SSE,165,6.0,6.0,53,0.00,,,0.00,Wunderground v.1.15,2013-05-27 23:05:00,
2013-05-27 18:10:00,86.4,66.7,29.99,South,190,5.0,8.0,52,0.00,,,0.00,Wunderground v.1.15,2013-05-27 23:10:00,
2013-05-27 18:15:00,86.2,67.1,29.99,South,186,6.0,8.0,53,0.00,,,0.00,Wunderground v.1.15,2013-05-27 23:15:00,
2013-05-27 18:20:00,86.2,67.6,29.98,South,174,5.0,6.0,54,0.00,,,0.00,Wunderground v.1.15,2013-05-27 23:20:00,
2013-05-27 18:30:00,85.8,67.8,29.98,South,185,6.0,6.0,55,0.00,,,0.00,Wunderground v.1.15,2013-05-27 23:30:00,
2013-05-27 18:35:00,85.6,66.0,29.99,South,183,6.0,6.0,52,0.00,,,0.00,Wunderground v.1.15,2013-05-27 23:35:00,
2013-05-27 18:40:00,85.4,66.9,29.99,SE,137,6.0,6.0,54,0.00,,,0.00,Wunderground v.1.15,2013-05-27 23:40:00,
2013-05-27 18:45:00,85.3,66.8,29.98,South,190,5.0,8.0,54,0.00,,,0.00,Wunderground v.1.15,2013-05-27 23:45:00,
2013-05-27 18:50:00,85.1,67.1,29.99,SSW,211,5.0,6.0,55,0.00,,,0.00,Wunderground v.1.15,2013-05-27 23:50:00,
2013-05-27 19:00:00,84.9,65.9,29.99,South,169,4.0,6.0,53,0.00,,,0.00,Wunderground v.1.15,2013-05-28 00:00:00,
2013-05-27 19:05:00,84.6,66.1,29.98,SSW,193,5.0,6.0,54,0.00,,,0.00,Wunderground v.1.15,2013-05-28 00:05:00,
2013-05-27 19:10:00,84.5,67.1,29.99,SSE,165,5.0,6.0,56,0.00,,,0.00,Wunderground v.1.15,2013-05-28 00:10:00,
2013-05-27 19:15:00,84.2,66.8,29.99,SSW,198,4.0,6.0,56,0.00,,,0.00,Wunderground v.1.15,2013-05-28 00:15:00,
2013-05-27 19:20:00,84.1,67.7,29.99,SSW,197,4.0,4.0,58,0.00,,,0.00,Wunderground v.1.15,2013-05-28 00:20:00,
2013-05-27 19:25:00,84.0,68.1,29.99,SSW,192,3.0,5.0,59,0.00,,,0.00,Wunderground v.1.15,2013-05-28 00:25:00,
2013-05-27 19:35:00,83.1,68.3,29.99,SSW,192,4.0,6.0,61,0.00,,,0.00,Wunderground v.1.15,2013-05-28 00:35:00,
2013-05-27 19:40:00,82.7,68.8,29.99,SSW,200,4.0,6.0,63,0.00,,,0.00,Wunderground v.1.15,2013-05-28 00:40:00,
2013-05-27 19:45:00,82.2,69.3,29.99,South,186,4.0,6.0,65,0.00,,,0.00,Wunderground v.1.15,2013-05-28 00:45:00,
2013-05-27 19:50:00,81.6,69.1,29.99,South,176,4.0,6.0,66,0.00,,,0.00,Wunderground v.1.15,2013-05-28 00:50:00,
2013-05-27 19:55:00,81.1,69.5,29.99,South,175,4.0,6.0,68,0.00,,,0.00,Wunderground v.1.15,2013-05-28 00:55:00,
2013-05-27 20:05:00,80.4,69.7,29.99,South,185,4.0,6.0,70,0.00,,,0.00,Wunderground v.1.15,2013-05-28 01:05:00,
2013-05-27 20:10:00,80.1,69.4,29.99,South,179,4.0,6.0,70,0.00,,,0.00,Wunderground v.1.15,2013-05-28 01:10:00,
2013-05-27 20:15:00,79.9,69.2,29.99,SSE,167,4.0,6.0,70,0.00,,,0.00,Wunderground v.1.15,2013-05-28 01:15:00,
2013-05-27 20:20:00,79.6,69.8,30.00,ESE,108,4.0,4.0,72,0.00,,,0.00,Wunderground v.1.15,2013-05-28 01:20:00,
2013-05-27 20:25:00,79.3,69.5,29.99,South,174,3.0,6.0,72,0.00,,,0.00,Wunderground v.1.15,2013-05-28 01:25:00,
2013-05-27 20:30:00,79.0,69.6,29.99,SSE,155,3.0,6.0,73,0.00,,,0.00,Wunderground v.1.15,2013-05-28 01:30:00,
2013-05-27 20:35:00,78.8,69.8,30.00,SSE,165,3.0,6.0,74,0.00,,,0.00,Wunderground v.1.15,2013-05-28 01:35:00,
2013-05-27 20:40:00,78.4,69.4,30.00,South,179,3.0,6.0,74,0.00,,,0.00,Wunderground v.1.15,2013-05-28 01:40:00,
2013-05-27 20:45:00,78.2,69.2,30.00,SSE,167,3.0,6.0,74,0.00,,,0.00,Wunderground v.1.15,2013-05-28 01:45:00,
2013-05-27 20:50:00,78.0,69.4,30.00,South,179,3.0,3.0,75,0.00,,,0.00,Wunderground v.1.15,2013-05-28 01:50:00,
2013-05-27 20:55:00,77.9,68.9,30.00,SSE,166,3.0,4.0,74,0.00,,,0.00,Wunderground v.1.15,2013-05-28 01:55:00,
2013-05-27 21:00:00,77.7,69.1,30.00,SSE,168,4.0,4.0,75,0.00,,,0.00,Wunderground v.1.15,2013-05-28 02:00:00,
2013-05-27 21:10:00,77.4,69.2,30.00,South,174,3.0,6.0,76,0.00,,,0.00,Wunderground v.1.15,2013-05-28 02:10:00,
2013-05-27 21:15:00,77.1,68.9,30.00,South,172,3.0,6.0,76,0.00,,,0.00,Wunderground v.1.15,2013-05-28 02:15:00,
2013-05-27 21:20:00,77.0,68.9,30.00,South,185,3.0,6.0,76,0.00,,,0.00,Wunderground v.1.15,2013-05-28 02:20:00,
2013-05-27 21:25:00,76.8,68.7,30.00,South,172,3.0,6.0,76,0.00,,,0.00,Wunderground v.1.15,2013-05-28 02:25:00,
2013-05-27 21:30:00,76.7,69.3,30.01,SSE,155,3.0,3.0,78,0.00,,,0.00,Wunderground v.1.15,2013-05-28 02:30:00,
2013-05-27 21:40:00,76.2,69.9,30.01,SSE,160,2.0,6.0,81,0.00,,,0.00,Wunderground v.1.15,2013-05-28 02:40:00,
2013-05-27 21:45:00,75.9,69.3,30.00,South,169,2.0,6.0,80,0.00,,,0.00,Wunderground v.1.15,2013-05-28 02:45:00,
2013-05-27 21:50:00,75.8,69.6,30.01,SSE,166,2.0,6.0,81,0.00,,,0.00,Wunderground v.1.15,2013-05-28 02:50:00,
2013-05-27 21:55:00,75.7,69.5,30.01,SSE,164,3.0,6.0,81,0.00,,,0.00,Wunderground v.1.15,2013-05-28 02:55:00,
2013-05-27 22:00:00,75.7,69.5,30.01,SSE,160,2.0,6.0,81,0.00,,,0.00,Wunderground v.1.15,2013-05-28 03:00:00,
2013-05-27 22:05:00,75.8,69.9,30.01,SSE,158,3.0,6.0,82,0.00,,,0.00,Wunderground v.1.15,2013-05-28 03:05:00,
2013-05-27 22:15:00,75.7,69.8,30.02,SSE,163,2.0,6.0,82,0.00,,,0.00,Wunderground v.1.15,2013-05-28 03:15:00,
2013-05-27 22:20:00,75.5,69.6,30.02,SSE,165,2.0,6.0,82,0.00,,,0.00,Wunderground v.1.15,2013-05-28 03:20:00,
2013-05-27 22:25:00,75.6,70.1,30.02,SSE,153,2.0,6.0,83,0.00,,,0.00,Wunderground v.1.15,2013-05-28 03:25:00,
2013-05-27 22:30:00,75.5,70.3,30.02,SE,145,2.0,2.0,84,0.00,,,0.00,Wunderground v.1.15,2013-05-28 03:30:00,
2013-05-27 22:35:00,75.3,70.1,30.02,SSE,153,1.0,6.0,84,0.00,,,0.00,Wunderground v.1.15,2013-05-28 03:35:00,
2013-05-27 22:45:00,74.3,69.5,30.03,SSE,153,0.0,6.0,85,0.00,,,0.00,Wunderground v.1.15,2013-05-28 03:45:00,
2013-05-27 22:50:00,73.9,69.4,30.03,SSE,153,0.0,6.0,86,0.00,,,0.00,Wunderground v.1.15,2013-05-28 03:50:00,
2013-05-27 22:55:00,73.7,69.2,30.03,SSE,153,0.0,6.0,86,0.00,,,0.00,Wunderground v.1.15,2013-05-28 03:55:00,
2013-05-27 23:00:00,73.6,69.2,30.03,SSE,153,0.0,6.0,86,0.00,,,0.00,Wunderground v.1.15,2013-05-28 04:00:00,
2013-05-27 23:05:00,73.4,69.3,30.03,SSE,153,0.0,6.0,87,0.00,,,0.00,Wunderground v.1.15,2013-05-28 04:05:00,
2013-05-27 23:10:00,73.2,69.1,30.03,SSE,153,0.0,6.0,87,0.00,,,0.00,Wunderground v.1.15,2013-05-28 04:10:00,
2013-05-27 23:20:00,72.9,69.1,30.04,SSE,153,0.0,6.0,88,0.00,,,0.00,Wunderground v.1.15,2013-05-28 04:20:00,
2013-05-27 23:25:00,72.8,69.0,30.04,SSE,153,0.0,6.0,88,0.00,,,0.00,Wunderground v.1.15,2013-05-28 04:25:00,
2013-05-27 23:30:00,72.6,69.2,30.04,SSE,153,0.0,6.0,89,0.00,,,0.00,Wunderground v.1.15,2013-05-28 04:30:00,
2013-05-27 23:35:00,72.5,69.1,30.04,SSE,153,0.0,6.0,89,0.00,,,0.00,Wunderground v.1.15,2013-05-28 04:35:00,
2013-05-27 23:40:00,72.2,69.1,30.05,East,101,0.0,6.0,90,0.00,,,0.00,Wunderground v.1.15,2013-05-28 04:40:00,
2013-05-27 23:45:00,71.6,68.8,30.04,East,101,0.0,6.0,91,0.00,,,0.00,Wunderground v.1.15,2013-05-28 04:45:00,
2013-05-27 23:50:00,71.4,69.0,30.05,ESE,102,1.0,6.0,92,0.00,,,0.00,Wunderground v.1.15,2013-05-28 04:50:00,
2013-05-27 23:55:00,71.5,69.1,30.05,ESE,105,1.0,6.0,92,0.00,,,0.00,Wunderground v.1.15,2013-05-28 04:55:00,